createdAt,value
2019-06-10T00:00:21.206Z,19.44
2019-06-10T00:01:14.584Z,19.41
2019-06-10T00:02:13.614Z,19.24
2019-06-10T00:03:14.074Z,19.22
2019-06-10T00:04:15.190Z,19.19
2019-06-10T00:05:13.616Z,19.17
2019-06-10T00:06:11.493Z,19.15
2019-06-10T00:07:14.375Z,19.04
2019-06-10T00:08:14.824Z,19.04
2019-06-10T00:09:14.561Z,18.91
2019-06-10T00:10:15.043Z,18.94
2019-06-10T00:11:14.343Z,19.04
2019-06-10T00:12:15.442Z,19.01
2019-06-10T00:13:14.568Z,18.92
2019-06-10T00:14:13.408Z,18.94
2019-06-10T00:15:13.515Z,18.73
2019-06-10T00:16:14.572Z,18.88
2019-06-10T00:17:13.697Z,18.78
2019-06-10T00:18:45.929Z,18.88
2019-06-10T00:19:15.408Z,18.89
2019-06-10T00:20:13.839Z,19.08
2019-06-10T00:21:13.868Z,19.16
2019-06-10T00:22:14.719Z,19.12
2019-06-10T00:23:14.579Z,19.24
2019-06-10T00:24:14.336Z,19.09
2019-06-10T00:25:12.058Z,19.04
2019-06-10T00:26:15.254Z,19
2019-06-10T00:27:14.506Z,19.04
2019-06-10T00:28:14.857Z,19.17
2019-06-10T00:29:14.615Z,19.17
2019-06-10T00:30:14.936Z,19.22
2019-06-10T00:31:14.181Z,19.34
2019-06-10T00:32:15.558Z,19.35
2019-06-10T00:33:14.748Z,19.22
2019-06-10T00:34:15.071Z,19.24
2019-06-10T00:35:15.004Z,19.26
2019-06-10T00:36:16.189Z,19.29
2019-06-10T00:37:17.323Z,19.32
2019-06-10T00:38:16.778Z,19.3
2019-06-10T00:39:15.944Z,19.29
2019-06-10T00:40:16.913Z,19.34
2019-06-10T00:41:16.787Z,19.27
2019-06-10T00:42:17.466Z,19.3
2019-06-10T00:43:16.054Z,19.39
2019-06-10T00:44:15.197Z,19.3
2019-06-10T00:45:21.581Z,19.26
2019-06-10T00:46:16.238Z,19.3
2019-06-10T00:47:17.491Z,19.44
2019-06-10T00:48:32.263Z,19.38
2019-06-10T00:49:17.224Z,19.35
2019-06-10T00:50:17.216Z,19.34
2019-06-10T00:51:15.656Z,19.34
2019-06-10T00:52:16.479Z,19.37
2019-06-10T00:53:16.696Z,19.37
2019-06-10T00:54:17.543Z,19.39
2019-06-10T00:55:14.717Z,19.42
2019-06-10T00:56:15.524Z,19.38
2019-06-10T00:57:13.744Z,19.26
2019-06-10T00:58:15.038Z,19.24
2019-06-10T00:59:15.303Z,19.3
2019-06-10T01:00:28.393Z,19.3
2019-06-10T01:01:16.604Z,19.27
2019-06-10T01:02:15.592Z,19.22
2019-06-10T01:03:16.012Z,19.27
2019-06-10T01:04:18.464Z,19.23
2019-06-10T01:05:12.458Z,19.26
2019-06-10T01:06:16.124Z,19.29
2019-06-10T01:07:14.275Z,19.19
2019-06-10T01:08:13.790Z,19.19
2019-06-10T01:09:13.462Z,19.22
2019-06-10T01:10:13.342Z,19.23
2019-06-10T01:11:27.248Z,19.26
2019-06-10T01:12:12.881Z,19.26
2019-06-10T01:13:13.241Z,19.32
2019-06-10T01:14:12.481Z,19.27
2019-06-10T01:15:12.474Z,19.2
2019-06-10T01:16:12.499Z,19.2
2019-06-10T01:17:15.414Z,19.2
2019-06-10T01:18:35.379Z,19.16
2019-06-10T01:19:12.687Z,19.22
2019-06-10T01:20:14.095Z,19.27
2019-06-10T01:21:15.486Z,19.26
2019-06-10T01:22:15.442Z,19.15
2019-06-10T01:23:15.301Z,19.17
2019-06-10T01:24:11.970Z,19.19
2019-06-10T01:25:12.348Z,18.98
2019-06-10T01:26:16.324Z,19.07
2019-06-10T01:27:15.071Z,19.08
2019-06-10T01:28:13.216Z,19.04
2019-06-10T01:29:12.675Z,19.07
2019-06-10T01:30:27.385Z,19.09
2019-06-10T01:31:24.275Z,18.97
2019-06-10T01:32:12.197Z,19
2019-06-10T01:33:16.345Z,18.94
2019-06-10T01:34:12.340Z,19
2019-06-10T01:35:14.475Z,19.07
2019-06-10T01:36:13.193Z,18.98
2019-06-10T01:37:14.312Z,18.98
2019-06-10T01:38:13.349Z,18.94
2019-06-10T01:39:11.923Z,18.94
2019-06-10T01:40:13.376Z,18.76
2019-06-10T01:41:15.520Z,18.71
2019-06-10T01:42:14.323Z,18.73
2019-06-10T01:43:13.852Z,18.51
2019-06-10T01:44:14.734Z,18.45
2019-06-10T01:45:14.600Z,18.39
2019-06-10T01:46:13.209Z,18.42
2019-06-10T01:47:12.697Z,18.45
2019-06-10T01:48:14.631Z,18.43
2019-06-10T01:49:12.962Z,18.49
2019-06-10T01:50:12.414Z,18.57
2019-06-10T01:51:11.824Z,18.41
2019-06-10T01:52:12.411Z,18.34
2019-06-10T01:53:13.639Z,18.23
2019-06-10T01:54:12.322Z,18.21
2019-06-10T01:55:12.584Z,18.06
2019-06-10T01:56:12.670Z,17.9
2019-06-10T01:57:16.989Z,17.8
2019-06-10T01:58:14.248Z,17.73
2019-06-10T01:59:12.463Z,17.73
2019-06-10T02:00:26.009Z,17.79
2019-06-10T02:01:16.635Z,17.79
2019-06-10T02:02:12.600Z,17.65
2019-06-10T02:03:15.132Z,17.69
2019-06-10T02:04:13.008Z,17.72
2019-06-10T02:05:15.948Z,17.76
2019-06-10T02:06:15.793Z,17.76
2019-06-10T02:07:15.454Z,17.76
2019-06-10T02:08:14.662Z,17.82
2019-06-10T02:09:15.029Z,17.9
2019-06-10T02:10:15.553Z,17.82
2019-06-10T02:11:14.368Z,17.8
2019-06-10T02:12:12.656Z,17.79
2019-06-10T02:13:12.017Z,17.78
2019-06-10T02:14:14.376Z,17.93
2019-06-10T02:15:12.492Z,17.95
2019-06-10T02:16:12.706Z,17.79
2019-06-10T02:17:12.504Z,17.91
2019-06-10T02:18:15.294Z,17.8
2019-06-10T02:19:12.863Z,17.82
2019-06-10T02:20:12.889Z,17.87
2019-06-10T02:21:12.967Z,17.91
2019-06-10T02:22:13.040Z,17.91
2019-06-10T02:23:11.419Z,17.98
2019-06-10T02:24:12.577Z,17.88
2019-06-10T02:25:11.035Z,17.98
2019-06-10T02:26:11.764Z,17.95
2019-06-10T02:27:12.654Z,17.84
2019-06-10T02:28:12.794Z,17.75
2019-06-10T02:29:11.551Z,17.79
2019-06-10T02:30:50.483Z,17.98
2019-06-10T02:31:14.128Z,17.95
2019-06-10T02:32:14.163Z,18.02
2019-06-10T02:33:36.311Z,18.08
2019-06-10T02:34:13.124Z,18.09
2019-06-10T02:35:43.183Z,18.05
2019-06-10T02:36:13.837Z,18.15
2019-06-10T02:37:13.565Z,18.11
2019-06-10T02:38:10.323Z,18.15
2019-06-10T02:39:10.276Z,18.18
2019-06-10T02:40:10.305Z,18.19
2019-06-10T02:41:14.071Z,18.15
2019-06-10T02:42:13.091Z,18.13
2019-06-10T02:43:14.187Z,18.21
2019-06-10T02:44:10.333Z,17.98
2019-06-10T02:45:13.775Z,17.94
2019-06-10T02:46:13.579Z,17.88
2019-06-10T02:47:13.508Z,17.79
2019-06-10T02:48:12.881Z,17.75
2019-06-10T02:50:01.663Z,17.72
2019-06-10T02:50:36.581Z,17.94
2019-06-10T02:51:35.595Z,17.86
2019-06-10T02:52:38.291Z,17.88
2019-06-10T02:53:35.846Z,17.79
2019-06-10T02:54:35.865Z,17.82
2019-06-10T02:55:35.049Z,17.86
2019-06-10T02:56:36.252Z,17.84
2019-06-10T02:57:40.180Z,17.79
2019-06-10T02:58:38.684Z,17.79
2019-06-10T02:59:32.562Z,17.97
2019-06-10T03:00:50.062Z,17.9
2019-06-10T03:01:37.949Z,17.8
2019-06-10T03:02:35.390Z,17.8
2019-06-10T03:03:49.342Z,17.86
2019-06-10T03:04:32.453Z,17.75
2019-06-10T03:05:40.460Z,17.69
2019-06-10T03:06:39.742Z,17.57
2019-06-10T03:07:31.625Z,17.65
2019-06-10T03:08:35.880Z,17.56
2019-06-10T03:09:31.965Z,17.73
2019-06-10T03:10:37.034Z,17.72
2019-06-10T03:11:36.569Z,17.82
2019-06-10T03:12:26.511Z,17.82
2019-06-10T03:13:26.274Z,17.79
2019-06-10T03:14:25.408Z,17.8
2019-06-10T03:15:26.845Z,17.78
2019-06-10T03:16:25.852Z,17.9
2019-06-10T03:17:24.764Z,17.8
2019-06-10T03:18:24.671Z,17.82
2019-06-10T03:19:53.551Z,17.87
2019-06-10T03:20:26.595Z,17.95
2019-06-10T03:21:26.773Z,17.95
2019-06-10T03:22:25.904Z,17.86
2019-06-10T03:23:27.930Z,17.59
2019-06-10T03:24:27.487Z,17.65
2019-06-10T03:25:27.715Z,17.56
2019-06-10T03:26:27.646Z,17.44
2019-06-10T03:27:27.804Z,17.38
2019-06-10T03:28:27.723Z,17.37
2019-06-10T03:29:28.191Z,17.44
2019-06-10T03:30:54.879Z,17.44
2019-06-10T03:31:41.693Z,17.53
2019-06-10T03:32:40.870Z,17.52
2019-06-10T03:33:41.714Z,17.59
2019-06-10T03:38:53.647Z,17.68
2019-06-10T03:39:06.989Z,17.76
2019-06-10T03:40:07.663Z,17.72
2019-06-10T03:41:06.014Z,17.72
2019-06-10T03:42:07.497Z,17.75
2019-06-10T03:43:05.324Z,17.75
2019-06-10T03:44:05.381Z,17.73
2019-06-10T03:45:08.350Z,17.79
2019-06-10T03:46:05.958Z,17.8
2019-06-10T03:47:05.524Z,17.87
2019-06-10T03:48:06.451Z,17.91
2019-06-10T03:49:05.826Z,17.86
2019-06-10T03:50:05.954Z,17.87
2019-06-10T03:51:06.049Z,17.84
2019-06-10T03:52:05.250Z,17.73
2019-06-10T03:53:07.269Z,17.69
2019-06-10T03:54:05.202Z,17.76
2019-06-10T03:55:05.881Z,17.76
2019-06-10T03:56:07.404Z,17.79
2019-06-10T03:57:05.568Z,17.75
2019-06-10T03:58:07.363Z,17.69
2019-06-10T03:59:05.554Z,17.78
2019-06-10T04:00:14.258Z,17.79
2019-06-10T04:01:05.956Z,17.87
2019-06-10T04:02:07.488Z,17.79
2019-06-10T04:03:14.829Z,17.82
2019-06-10T04:04:07.516Z,17.82
2019-06-10T04:05:05.474Z,17.73
2019-06-10T04:06:07.631Z,17.8
2019-06-10T04:07:06.572Z,17.66
2019-06-10T04:08:07.400Z,17.76
2019-06-10T04:09:05.503Z,17.76
2019-06-10T04:10:07.493Z,17.6
2019-06-10T04:11:05.696Z,17.56
2019-06-10T04:12:07.143Z,17.52
2019-06-10T04:13:07.758Z,17.57
2019-06-10T04:14:05.110Z,17.56
2019-06-10T04:15:05.827Z,17.59
2019-06-10T04:16:07.641Z,17.66
2019-06-10T04:17:05.436Z,17.59
2019-06-10T04:18:06.623Z,17.54
2019-06-10T04:19:05.425Z,17.56
2019-06-10T04:20:18.218Z,17.57
2019-06-10T04:21:07.399Z,17.49
2019-06-10T04:22:05.324Z,17.56
2019-06-10T04:23:05.433Z,17.46
2019-06-10T04:24:07.402Z,17.47
2019-06-10T04:25:05.729Z,17.34
2019-06-10T04:26:07.433Z,17.39
2019-06-10T04:27:05.502Z,17.28
2019-06-10T04:28:05.872Z,17.34
2019-06-10T04:29:05.267Z,17.46
2019-06-10T04:30:06.073Z,17.27
2019-06-10T04:31:05.457Z,17.27
2019-06-10T04:32:05.775Z,17.17
2019-06-10T04:33:16.088Z,17.14
2019-06-10T04:34:05.921Z,17.07
2019-06-10T04:35:07.403Z,17.22
2019-06-10T04:36:05.749Z,17.19
2019-06-10T04:37:05.808Z,17.27
2019-06-10T04:38:05.238Z,17.37
2019-06-10T04:39:05.950Z,17.44
2019-06-10T04:40:05.623Z,17.38
2019-06-10T04:41:06.129Z,17.35
2019-06-10T04:43:32.303Z,17.42
2019-06-10T04:44:32.933Z,17.44
2019-06-10T04:45:32.355Z,17.42
2019-06-10T04:46:32.452Z,17.46
2019-06-10T04:47:33.084Z,17.54
2019-06-10T04:48:32.578Z,17.73
2019-06-10T04:49:32.690Z,17.59
2019-06-10T04:50:48.123Z,17.69
2019-06-10T04:51:32.654Z,17.76
2019-06-10T04:52:32.777Z,17.69
2019-06-10T04:53:32.776Z,17.8
2019-06-10T04:54:33.216Z,17.84
2019-06-10T04:55:32.480Z,17.8
2019-06-10T04:56:33.341Z,17.9
2019-06-10T04:57:32.667Z,17.88
2019-06-10T04:58:33.315Z,17.97
2019-06-10T04:59:33.574Z,17.94
2019-06-10T05:00:33.059Z,17.82
2019-06-10T05:01:33.481Z,18.03
2019-06-10T05:02:32.992Z,17.95
2019-06-10T05:03:32.827Z,18
2019-06-10T05:04:32.868Z,18.05
2019-06-10T05:05:30.453Z,18.05
2019-06-10T05:06:32.738Z,18.18
2019-06-10T05:07:37.001Z,18.02
2019-06-10T05:08:33.274Z,18
2019-06-10T05:09:33.480Z,18.15
2019-06-10T05:10:32.985Z,18.12
2019-06-10T05:11:33.066Z,18.23
2019-06-10T05:12:32.701Z,18.27
2019-06-10T05:13:33.248Z,18.24
2019-06-10T05:14:33.348Z,18.24
2019-06-10T05:15:34.794Z,18.3
2019-06-10T05:16:35.794Z,18.27
2019-06-10T05:17:34.255Z,18.41
2019-06-10T05:18:33.172Z,18.27
2019-06-10T05:19:33.697Z,18.41
2019-06-10T05:20:58.505Z,18.34
2019-06-10T05:21:33.696Z,18.34
2019-06-10T05:22:32.771Z,18.43
2019-06-10T05:23:29.941Z,18.26
2019-06-10T05:24:37.113Z,18.36
2019-06-10T05:25:32.703Z,18.39
2019-06-10T05:26:33.505Z,18.43
2019-06-10T05:27:30.644Z,18.49
2019-06-10T05:28:33.846Z,18.53
2019-06-10T05:29:34.077Z,18.41
2019-06-10T05:30:34.012Z,18.52
2019-06-10T05:31:34.909Z,18.52
2019-06-10T05:32:33.342Z,18.51
2019-06-10T05:33:30.528Z,18.57
2019-06-10T05:34:34.587Z,18.53
2019-06-10T05:35:34.007Z,18.53
2019-06-10T05:36:34.581Z,18.6
2019-06-10T05:37:31.438Z,18.58
2019-06-10T05:38:34.864Z,18.63
2019-06-10T05:39:34.326Z,18.55
2019-06-10T05:40:32.702Z,18.53
2019-06-10T05:41:35.027Z,18.43
2019-06-10T05:42:33.945Z,18.51
2019-06-10T05:43:32.871Z,18.49
2019-06-10T05:44:34.378Z,18.51
2019-06-10T05:45:35.053Z,18.48
2019-06-10T05:46:33.319Z,18.51
2019-06-10T05:47:35.656Z,18.63
2019-06-10T05:48:30.366Z,18.57
2019-06-10T05:49:34.108Z,18.53
2019-06-10T05:50:30.380Z,18.58
2019-06-10T05:51:33.365Z,18.6
2019-06-10T05:53:52.862Z,18.6
2019-06-10T05:54:54.840Z,18.6
2019-06-10T05:55:52.937Z,18.67
2019-06-10T05:56:54.751Z,18.68
2019-06-10T05:57:53.223Z,18.64
2019-06-10T05:58:54.999Z,18.74
2019-06-10T05:59:54.864Z,18.7
2019-06-10T06:00:53.116Z,18.74
2019-06-10T06:01:53.823Z,18.78
2019-06-10T06:02:54.887Z,18.79
2019-06-10T06:03:55.447Z,18.79
2019-06-10T06:04:53.043Z,18.83
2019-06-10T06:05:55.134Z,18.82
2019-06-10T06:06:53.106Z,18.83
2019-06-10T06:08:12.525Z,18.82
2019-06-10T06:08:53.321Z,18.89
2019-06-10T06:09:53.252Z,18.89
2019-06-10T06:10:52.768Z,18.92
2019-06-10T06:11:54.967Z,18.98
2019-06-10T06:12:55.261Z,18.92
2019-06-10T06:13:54.775Z,18.94
2019-06-10T06:14:52.808Z,18.96
2019-06-10T06:15:55.308Z,19.07
2019-06-10T06:16:53.332Z,19.08
2019-06-10T06:18:10.550Z,19.12
2019-06-10T06:18:55.222Z,19.05
2019-06-10T06:19:53.423Z,19.23
2019-06-10T06:20:55.193Z,19.17
2019-06-10T06:21:55.546Z,19.2
2019-06-10T06:22:54.792Z,19.15
2019-06-10T06:23:52.905Z,19.07
2019-06-10T06:24:54.787Z,19.26
2019-06-10T06:25:55.674Z,19.3
2019-06-10T06:26:53.385Z,19.26
2019-06-10T06:27:52.542Z,19.22
2019-06-10T06:28:53.440Z,19.26
2019-06-10T06:29:55.027Z,19.24
2019-06-10T06:30:52.772Z,19.15
2019-06-10T06:31:54.804Z,19.17
2019-06-10T06:32:53.250Z,19.2
2019-06-10T06:33:55.219Z,19.26
2019-06-10T06:34:52.726Z,19.27
2019-06-10T06:35:55.049Z,19.32
2019-06-10T06:36:52.900Z,19.3
2019-06-10T06:37:54.063Z,19.44
2019-06-10T06:38:53.063Z,19.49
2019-06-10T06:39:54.877Z,19.47
2019-06-10T06:40:56.330Z,19.56
2019-06-10T06:41:52.819Z,19.59
2019-06-10T06:42:55.133Z,19.48
2019-06-10T06:43:53.185Z,19.47
2019-06-10T06:44:55.115Z,19.6
2019-06-10T06:45:53.112Z,19.62
2019-06-10T06:46:53.232Z,19.56
2019-06-10T06:47:55.747Z,19.7
2019-06-10T06:48:53.187Z,19.75
2019-06-10T06:49:53.066Z,19.6
2019-06-10T06:51:12.907Z,19.72
2019-06-10T06:52:02.829Z,19.77
2019-06-10T06:53:45.014Z,19.78
2019-06-10T06:54:03.225Z,19.81
2019-06-10T06:55:04.992Z,19.7
2019-06-10T06:56:03.500Z,19.85
2019-06-10T06:57:03.435Z,19.77
2019-06-10T06:58:03.337Z,19.77
2019-06-10T06:59:02.561Z,19.9
2019-06-10T07:00:23.887Z,19.84
2019-06-10T07:01:24.980Z,19.74
2019-06-10T07:02:17.585Z,19.79
2019-06-10T07:03:29.680Z,19.97
2019-06-10T07:04:18.301Z,20.04
2019-06-10T07:05:17.838Z,20.04
2019-06-10T07:06:18.275Z,20.08
2019-06-10T07:07:18.336Z,20.12
2019-06-10T07:08:18.429Z,20.29
2019-06-10T07:09:18.796Z,20.29
2019-06-10T07:10:17.537Z,20.3
2019-06-10T07:11:18.468Z,20.32
2019-06-10T07:12:18.244Z,20.29
2019-06-10T07:13:18.357Z,20.12
2019-06-10T07:14:18.695Z,20.17
2019-06-10T07:15:17.407Z,20.07
2019-06-10T07:16:18.579Z,20.11
2019-06-10T07:17:17.929Z,20.26
2019-06-10T07:18:18.287Z,20.1
2019-06-10T07:19:29.210Z,20.1
2019-06-10T07:20:17.891Z,20.04
2019-06-10T07:21:19.214Z,20
2019-06-10T07:22:23.263Z,20.1
2019-06-10T07:23:18.197Z,20.07
2019-06-10T07:24:17.937Z,19.96
2019-06-10T07:25:17.702Z,19.81
2019-06-10T07:26:18.017Z,19.85
2019-06-10T07:27:18.368Z,19.79
2019-06-10T07:28:17.758Z,19.85
2019-06-10T07:29:18.490Z,19.81
2019-06-10T07:30:19.860Z,19.9
2019-06-10T07:31:32.520Z,19.72
2019-06-10T07:33:55.142Z,19.87
2019-06-10T07:34:52.539Z,19.75
2019-06-10T07:35:52.472Z,19.59
2019-06-10T07:36:52.145Z,19.67
2019-06-10T07:37:52.282Z,19.45
2019-06-10T07:38:56.581Z,19.63
2019-06-10T07:39:52.298Z,19.53
2019-06-10T07:40:52.981Z,19.64
2019-06-10T07:41:55.606Z,19.75
2019-06-10T07:42:52.896Z,19.78
2019-06-10T07:43:55.703Z,19.82
2019-06-10T07:44:52.969Z,19.85
2019-06-10T07:45:56.383Z,19.93
2019-06-10T07:46:52.965Z,19.85
2019-06-10T07:47:52.276Z,20.02
2019-06-10T07:48:58.939Z,19.94
2019-06-10T07:49:52.214Z,19.96
2019-06-10T07:50:53.175Z,19.93
2019-06-10T07:51:52.292Z,20.03
2019-06-10T07:52:52.866Z,19.79
2019-06-10T07:53:52.727Z,19.9
2019-06-10T07:54:52.755Z,20.02
2019-06-10T07:55:53.527Z,19.97
2019-06-10T07:56:56.476Z,20.12
2019-06-10T07:57:52.902Z,20.02
2019-06-10T07:58:55.340Z,20
2019-06-10T07:59:52.224Z,19.99
2019-06-10T08:00:56.124Z,20.08
2019-06-10T08:01:57.981Z,20.12
2019-06-10T08:02:52.974Z,20.18
2019-06-10T08:03:52.580Z,20.04
2019-06-10T08:04:54.119Z,20.08
2019-06-10T08:05:52.505Z,20
2019-06-10T08:06:53.289Z,19.99
2019-06-10T08:07:57.332Z,19.77
2019-06-10T08:08:53.107Z,20.02
2019-06-10T08:09:53.228Z,20.07
2019-06-10T08:10:52.909Z,20.14
2019-06-10T08:11:55.999Z,20.12
2019-06-10T08:12:55.158Z,20.29
2019-06-10T08:13:53.765Z,20.37
2019-06-10T08:14:53.203Z,20.08
2019-06-10T08:15:53.183Z,20.14
2019-06-10T08:16:53.061Z,20.08
2019-06-10T08:17:53.043Z,20.1
2019-06-10T08:19:40.262Z,20.27
2019-06-10T08:20:02.406Z,20.27
2019-06-10T08:21:00.153Z,20.4
2019-06-10T08:22:02.833Z,20.53
2019-06-10T08:23:04.904Z,20.68
2019-06-10T08:24:00.193Z,20.67
2019-06-10T08:25:00.198Z,20.32
2019-06-10T08:26:05.984Z,20.4
2019-06-10T08:27:02.530Z,20.44
2019-06-10T08:28:02.847Z,20.4
2019-06-10T08:29:00.206Z,20.49
2019-06-10T08:30:27.501Z,20.44
2019-06-10T08:31:00.200Z,20.49
2019-06-10T08:32:03.007Z,20.58
2019-06-10T08:33:03.289Z,20.44
2019-06-10T08:34:02.745Z,20.27
2019-06-10T08:35:02.598Z,20.46
2019-06-10T08:36:06.785Z,20.22
2019-06-10T08:37:04.032Z,20.29
2019-06-10T08:38:02.433Z,20.19
2019-06-10T08:39:00.210Z,20.3
2019-06-10T08:40:00.223Z,20.3
2019-06-10T08:41:02.852Z,20.48
2019-06-10T08:42:00.188Z,20.56
2019-06-10T08:43:00.236Z,20.71
2019-06-10T08:44:02.242Z,20.8
2019-06-10T08:45:03.426Z,20.77
2019-06-10T08:46:02.506Z,20.82
2019-06-10T08:47:00.201Z,20.89
2019-06-10T08:48:02.499Z,20.8
2019-06-10T08:49:00.297Z,20.82
2019-06-10T08:50:02.408Z,20.86
2019-06-10T08:51:00.238Z,20.8
2019-06-10T08:52:02.657Z,20.49
2019-06-10T08:53:22.676Z,20.4
2019-06-10T08:54:02.295Z,20.44
2019-06-10T08:55:00.216Z,20.26
2019-06-10T08:56:02.587Z,20.48
2019-06-10T08:57:00.842Z,20.67
2019-06-10T08:58:02.548Z,20.68
2019-06-10T08:59:00.240Z,20.8
2019-06-10T09:00:02.854Z,20.8
2019-06-10T09:01:02.200Z,20.89
2019-06-10T09:02:02.885Z,20.7
2019-06-10T09:03:00.234Z,20.77
2019-06-10T09:04:02.896Z,20.98
2019-06-10T09:05:00.243Z,20.96
2019-06-10T09:06:05.882Z,20.95
2019-06-10T09:07:00.236Z,20.83
2019-06-10T09:08:02.566Z,20.67
2019-06-10T09:09:00.262Z,20.55
2019-06-10T09:10:02.777Z,20.7
2019-06-10T09:11:02.283Z,20.8
2019-06-10T09:12:00.381Z,20.75
2019-06-10T09:13:02.603Z,20.66
2019-06-10T09:14:02.373Z,20.82
2019-06-10T09:15:03.137Z,20.89
2019-06-10T09:16:22.808Z,20.83
2019-06-10T09:17:03.211Z,20.83
2019-06-10T09:18:02.597Z,21
2019-06-10T09:19:02.216Z,21.11
2019-06-10T09:20:02.386Z,21.13
2019-06-10T09:21:02.281Z,21.32
2019-06-10T09:22:03.404Z,21.43
2019-06-10T09:23:27.951Z,21.45
2019-06-10T09:24:06.647Z,21.54
2019-06-10T09:25:02.872Z,21.6
2019-06-10T09:26:06.103Z,21.68
2019-06-10T09:27:02.842Z,21.47
2019-06-10T09:28:02.348Z,21.41
2019-06-10T09:29:02.835Z,21.26
2019-06-10T09:30:02.945Z,21.43
2019-06-10T09:31:07.672Z,21.43
2019-06-10T09:32:02.122Z,21.72
2019-06-10T09:33:06.542Z,21.87
2019-06-10T09:34:03.896Z,21.74
2019-06-10T09:35:05.979Z,21.78
2019-06-10T09:36:02.619Z,21.68
2019-06-10T09:37:03.501Z,21.63
2019-06-10T09:38:03.500Z,21.74
2019-06-10T09:39:03.891Z,21.77
2019-06-10T09:40:06.731Z,21.96
2019-06-10T09:41:08.812Z,21.81
2019-06-10T09:42:09.296Z,21.97
2019-06-10T09:43:02.444Z,21.99
2019-06-10T09:44:03.323Z,22.01
2019-06-10T09:45:02.564Z,21.97
2019-06-10T09:46:03.464Z,21.94
2019-06-10T09:47:03.628Z,21.96
2019-06-10T09:48:06.619Z,22.03
2019-06-10T09:49:02.100Z,22.07
2019-06-10T09:50:03.167Z,22.14
2019-06-10T09:51:05.190Z,22.23
2019-06-10T09:52:06.197Z,22.23
2019-06-10T09:53:03.362Z,22.15
2019-06-10T09:54:12.712Z,22.08
2019-06-10T09:55:02.656Z,22.06
2019-06-10T09:56:03.391Z,22
2019-06-10T09:57:02.368Z,22.14
2019-06-10T09:58:06.236Z,22.25
2019-06-10T09:59:03.102Z,22.16
2019-06-10T10:00:03.383Z,22.31
2019-06-10T10:01:06.137Z,22.26
2019-06-10T10:02:08.884Z,22.33
2019-06-10T10:03:03.448Z,22.23
2019-06-10T10:04:05.615Z,22.22
2019-06-10T10:05:03.713Z,22.28
2019-06-10T10:06:18.441Z,22.46
2019-06-10T10:07:03.135Z,22.41
2019-06-10T10:08:02.556Z,22.12
2019-06-10T10:09:06.678Z,22.36
2019-06-10T10:10:04.427Z,22.33
2019-06-10T10:11:04.141Z,22.28
2019-06-10T10:12:02.988Z,22.19
2019-06-10T10:13:02.640Z,22.22
2019-06-10T10:14:05.231Z,22.28
2019-06-10T10:15:30.736Z,22.55
2019-06-10T10:16:02.530Z,22.65
2019-06-10T10:17:07.480Z,22.52
2019-06-10T10:18:02.429Z,22.67
2019-06-10T10:19:07.962Z,22.89
2019-06-10T10:20:03.162Z,23.1
2019-06-10T10:21:07.008Z,23.07
2019-06-10T10:22:05.689Z,23.1
2019-06-10T10:23:02.637Z,23.32
2019-06-10T10:24:16.895Z,23.54
2019-06-10T10:25:02.956Z,23.1
2019-06-10T10:26:03.341Z,22.81
2019-06-10T10:27:09.651Z,23.32
2019-06-10T10:28:05.742Z,23.54
2019-06-10T10:29:05.325Z,23.64
2019-06-10T10:30:03.337Z,23.64
2019-06-10T10:31:03.833Z,23.89
2019-06-10T10:32:02.508Z,23.92
2019-06-10T10:33:02.643Z,24.07
2019-06-10T10:34:02.182Z,24.03
2019-06-10T10:35:02.999Z,23.96
2019-06-10T10:36:02.577Z,23.84
2019-06-10T10:37:02.946Z,23.96
2019-06-10T10:38:03.677Z,23.82
2019-06-10T10:39:02.416Z,23.88
2019-06-10T10:40:03.194Z,24.11
2019-06-10T10:41:07.303Z,24.06
2019-06-10T10:42:03.310Z,24.28
2019-06-10T10:43:37.402Z,24.25
2019-06-10T10:44:05.644Z,24.36
2019-06-10T10:45:06.124Z,24.55
2019-06-10T10:46:08.074Z,24.84
2019-06-10T10:47:03.617Z,24.86
2019-06-10T10:48:05.688Z,24.77
2019-06-10T10:49:02.750Z,24.99
2019-06-10T11:03:58.967Z,24.56
2019-06-10T11:04:13.190Z,24.62
2019-06-10T11:05:12.756Z,24.77
2019-06-10T11:06:15.428Z,24.86
2019-06-10T11:07:12.940Z,25.21
2019-06-10T11:08:16.037Z,24.62
2019-06-10T11:09:12.926Z,24.75
2019-06-10T11:10:12.764Z,24.5
2019-06-10T11:11:15.865Z,24.81
2019-06-10T11:12:12.109Z,25.06
2019-06-10T11:13:12.101Z,25.4
2019-06-10T11:14:14.295Z,25.34
2019-06-10T11:15:13.206Z,25.31
2019-06-10T11:16:12.089Z,25.46
2019-06-10T11:17:15.955Z,25.25
2019-06-10T11:18:15.139Z,25.44
2019-06-10T11:19:12.963Z,25.36
2019-06-10T11:20:13.582Z,25.62
2019-06-10T11:21:13.401Z,25.44
2019-06-10T11:22:12.619Z,25.39
2019-06-10T11:23:14.941Z,25.29
2019-06-10T11:24:14.473Z,25.54
2019-06-10T11:25:12.600Z,25.7
2019-06-10T11:26:14.986Z,25.95
2019-06-10T11:27:15.603Z,26.24
2019-06-10T11:28:12.250Z,25.86
2019-06-10T11:29:12.163Z,26.07
2019-06-10T11:30:12.414Z,26.16
2019-06-10T11:31:13.714Z,26.45
2019-06-10T11:32:12.179Z,26.76
2019-06-10T11:33:12.205Z,27
2019-06-10T11:34:12.169Z,26.85
2019-06-10T11:35:14.805Z,26.76
2019-06-10T11:36:13.426Z,26.89
2019-06-10T11:37:12.724Z,26.81
2019-06-10T11:38:12.776Z,26.88
2019-06-10T11:39:13.313Z,26.59
2019-06-10T11:40:13.101Z,26.41
2019-06-10T11:41:16.022Z,26.56
2019-06-10T11:42:13.197Z,26.91
2019-06-10T11:43:13.037Z,27.01
2019-06-10T11:44:12.179Z,26.63
2019-06-10T11:45:12.218Z,26.55
2019-06-10T11:46:16.451Z,26.88
2019-06-10T11:47:13.196Z,27.18
2019-06-10T11:48:12.921Z,27.22
2019-06-10T11:49:12.634Z,26.81
2019-06-10T11:50:14.729Z,27.22
2019-06-10T11:51:12.940Z,27.66
2019-06-10T11:52:12.640Z,27.72
2019-06-10T11:53:15.363Z,27.81
2019-06-10T11:54:12.778Z,27.76
2019-06-10T11:55:23.749Z,27.44
2019-06-10T11:56:13.003Z,27.4
2019-06-10T11:57:12.586Z,27.29
2019-06-10T11:58:12.224Z,27.4
2019-06-10T11:59:16.189Z,27.33
2019-06-10T12:00:23.157Z,27.48
2019-06-10T12:01:15.482Z,27.37
2019-06-10T12:02:13.178Z,27.22
2019-06-10T12:03:13.113Z,27.13
2019-06-10T12:04:12.827Z,27.52
2019-06-10T12:05:12.978Z,27.75
2019-06-10T12:06:13.507Z,27.48
2019-06-10T12:07:12.830Z,27.47
2019-06-10T12:08:12.975Z,27.16
2019-06-10T12:09:13.680Z,27.04
2019-06-10T12:10:12.782Z,26.71
2019-06-10T12:11:15.200Z,27.04
2019-06-10T12:12:12.898Z,27.13
2019-06-10T12:13:13.323Z,27.48
2019-06-10T12:14:12.823Z,27.44
2019-06-10T12:15:15.155Z,27.76
2019-06-10T12:17:50.770Z,27.71
2019-06-10T12:18:15.899Z,27.72
2019-06-10T12:19:18.017Z,27.73
2019-06-10T12:20:18.601Z,27.5
2019-06-10T12:21:18.586Z,27.98
2019-06-10T12:22:16.433Z,28.06
2019-06-10T12:23:17.939Z,27.72
2019-06-10T12:24:17.809Z,27.72
2019-06-10T12:25:43.129Z,27.79
2019-06-10T12:26:15.387Z,27.93
2019-06-10T12:27:15.864Z,28.19
2019-06-10T12:28:18.100Z,27.94
2019-06-10T12:29:17.776Z,28.03
2019-06-10T12:30:16.800Z,28.41
2019-06-10T12:31:18.552Z,28.4
2019-06-10T12:32:16.196Z,28.52
2019-06-10T12:33:28.110Z,28.27
2019-06-10T12:40:44.445Z,28.01
2019-06-10T12:41:06.844Z,28.34
2019-06-10T12:42:06.053Z,28.25
2019-06-10T12:43:05.044Z,28.2
2019-06-10T12:43:58.350Z,28.13
2019-06-10T12:44:59.297Z,28.16
2019-06-10T12:46:00.786Z,28.23
2019-06-10T12:47:06.233Z,27.98
2019-06-10T12:48:00.200Z,27.91
2019-06-10T12:49:08.394Z,27.9
2019-06-10T12:50:01.570Z,27.82
2019-06-10T12:50:59.296Z,27.64
2019-06-10T12:52:01.275Z,27.67
2019-06-10T12:53:04.968Z,27.23
2019-06-10T12:53:57.302Z,27.26
2019-06-10T12:54:55.995Z,27.3
2019-06-10T12:56:01.247Z,27.38
2019-06-10T12:57:00.629Z,26.98
2019-06-10T12:57:59.849Z,27.11
2019-06-10T12:58:59.629Z,27.07
2019-06-10T12:59:58.425Z,27.05
2019-06-10T13:00:59.819Z,27.11
2019-06-10T13:02:06.609Z,27.04
2019-06-10T13:02:55.817Z,27.04
2019-06-10T13:04:13.901Z,27.05
2019-06-10T13:04:59.496Z,27.11
2019-06-10T13:05:59.553Z,27.07
2019-06-10T13:07:00.232Z,26.89
2019-06-10T13:07:57.293Z,26.68
2019-06-10T13:08:56.303Z,26.56
2019-06-10T13:09:58.166Z,26.56
2019-06-10T13:11:00.339Z,26.63
2019-06-10T13:11:59.733Z,26.68
2019-06-10T13:13:00.062Z,26.7
2019-06-10T13:13:56.201Z,26.56
2019-06-10T13:14:59.925Z,26.59
2019-06-10T13:16:00.594Z,26.53
2019-06-10T13:16:58.865Z,26.6
2019-06-10T13:18:00.193Z,26.51
2019-06-10T13:18:58.387Z,26.37
2019-06-10T13:19:56.794Z,26.34
2019-06-10T13:20:59.689Z,26.15
2019-06-10T13:21:59.176Z,25.99
2019-06-10T13:22:56.203Z,25.77
2019-06-10T13:23:57.460Z,25.93
2019-06-10T13:24:59.146Z,25.99